PWSweather.com
Personal Weather Stations
Station Observations
PARE361
Paremoremo, AucklandNZ

ParemoremoAucklandNZ

Lat: -36.7575, Lon: 174.665

Elevation: 276

Station Type: La Crosse WS2355

Latest ConditionsUpdated 6:48:26 PM GMT+12:12 Sunday, Jul 23, 2017
Currently Today's Max Today's Min Today's Average
Temperature 52.7°F11.5°C 58.3°F14.6°C 48.4°F9.1°C 52.1°F11.2°C
Dew Point 51.0°F10.6°C 56.9°F13.8°C 46.9°F8.3°C 50.5°F10.3°C
Winds 1.3 mph W2.1 kmh W 4.5 mph SSW7.2 kmh SSW - 0.5 mph 0.8 kmh
Wind Gusts 4.5 mph7.2 kmh 9.8 mph15.8 kmh - -
Humidity 94% 95% 93% 94%
Pressure 29.71 in1006.1 mb 29.72 in1006.4 mb 29.49 in998.6 mb -
Precipitation - 0.02 in0.5 mm - -
Hour Temp Dew Point Humidity Winds Wind Gusts Pressure Precip Precip Rate Daily Precip Total
06:48 PM 52.7°F11.5°C 51.0°F10.6°C 94% 1.3 mph W2.1 kmh W 4.5 mph7.2 kmh 29.71 in1006.1 mb 0.00 in0.0 mm 0.00 in0.0 mm 0.02 in0.5 mm
06:45 PM 52.7°F11.5°C 51.0°F10.6°C 94% Calm Calm 4.5 mph7.2 kmh 29.72 in1006.4 mb 0.00 in0.0 mm 0.00 in0.0 mm 0.02 in0.5 mm
06:30 PM 52.9°F11.6°C 51.2°F10.7°C 94% Calm Calm 2.5 mph4.0 kmh 29.72 in1006.4 mb 0.00 in0.0 mm 0.00 in0.0 mm 0.02 in0.5 mm
06:15 PM 53.1°F11.7°C 51.1°F10.6°C 93% 1.1 mph W1.8 kmh W 4.0 mph6.4 kmh 29.71 in1006.1 mb 0.00 in0.0 mm 0.00 in0.0 mm 0.02 in0.5 mm
06:00 PM 53.2°F11.8°C 51.3°F10.7°C 93% 0.7 mph WSW1.1 kmh WSW 3.8 mph6.1 kmh 29.71 in1006.1 mb 0.00 in0.0 mm 0.00 in0.0 mm 0.02 in0.5 mm
05:45 PM 53.2°F11.8°C 51.3°F10.7°C 93% Calm Calm 6.0 mph9.7 kmh 29.70 in1005.8 mb 0.00 in0.0 mm 0.00 in0.0 mm 0.02 in0.5 mm
05:30 PM 53.4°F11.9°C 51.4°F10.8°C 93% Calm Calm 3.1 mph5.0 kmh 29.69 in1005.4 mb 0.00 in0.0 mm 0.00 in0.0 mm 0.02 in0.5 mm
05:15 PM 53.8°F12.1°C 51.8°F11.0°C 93% Calm Calm 5.4 mph8.7 kmh 29.69 in1005.4 mb 0.00 in0.0 mm 0.00 in0.0 mm 0.02 in0.5 mm
05:00 PM 54.3°F12.4°C 52.3°F11.3°C 93% Calm Calm 4.0 mph6.4 kmh 29.69 in1005.4 mb 0.00 in0.0 mm 0.00 in0.0 mm 0.02 in0.5 mm
04:45 PM 54.7°F12.6°C 52.7°F11.5°C 93% 2.5 mph WSW4.0 kmh WSW 7.6 mph12.2 kmh 29.69 in1005.4 mb 0.00 in0.0 mm 0.00 in0.0 mm 0.02 in0.5 mm
04:30 PM 55.0°F12.8°C 53.1°F11.7°C 93% Calm Calm 8.7 mph14.0 kmh 29.69 in1005.4 mb 0.00 in0.0 mm 0.00 in0.0 mm 0.02 in0.5 mm
04:15 PM 55.2°F12.9°C 53.2°F11.8°C 93% 1.1 mph W1.8 kmh W 7.2 mph11.6 kmh 29.69 in1005.4 mb 0.00 in0.0 mm 0.00 in0.0 mm 0.02 in0.5 mm
04:00 PM 55.8°F13.2°C 53.8°F12.1°C 93% Calm Calm 4.5 mph7.2 kmh 29.68 in1005.1 mb 0.00 in0.0 mm 0.00 in0.0 mm 0.02 in0.5 mm
03:45 PM 56.3°F13.5°C 54.3°F12.4°C 93% 1.1 mph WNW1.8 kmh WNW 6.5 mph10.5 kmh 29.68 in1005.1 mb 0.00 in0.0 mm 0.00 in0.0 mm 0.02 in0.5 mm
03:30 PM 56.3°F13.5°C 54.3°F12.4°C 93% Calm Calm 8.1 mph13.0 kmh 29.68 in1005.1 mb 0.00 in0.0 mm 0.00 in0.0 mm 0.02 in0.5 mm
03:15 PM 56.5°F13.6°C 54.5°F12.5°C 93% 1.8 mph WSW2.9 kmh WSW 8.9 mph14.3 kmh 29.68 in1005.1 mb 0.00 in0.0 mm 0.00 in0.0 mm 0.02 in0.5 mm
03:00 PM 56.3°F13.5°C 54.3°F12.4°C 93% 1.1 mph WSW1.8 kmh WSW 6.7 mph10.8 kmh 29.68 in1005.1 mb 0.00 in0.0 mm 0.00 in0.0 mm 0.02 in0.5 mm
02:45 PM 56.5°F13.6°C 54.5°F12.5°C 93% Calm Calm 6.0 mph9.7 kmh 29.68 in1005.1 mb 0.00 in0.0 mm 0.00 in0.0 mm 0.02 in0.5 mm
02:30 PM 56.5°F13.6°C 54.5°F12.5°C 93% 4.5 mph SSW7.2 kmh SSW 4.5 mph7.2 kmh 29.68 in1005.1 mb 0.00 in0.0 mm 0.00 in0.0 mm 0.02 in0.5 mm
02:15 PM 56.7°F13.7°C 54.7°F12.6°C 93% Calm Calm 5.8 mph9.3 kmh 29.68 in1005.1 mb 0.00 in0.0 mm 0.00 in0.0 mm 0.02 in0.5 mm
02:00 PM 57.4°F14.1°C 55.7°F13.2°C 94% 0.9 mph WNW1.4 kmh WNW 9.8 mph15.8 kmh 29.68 in1005.1 mb 0.00 in0.0 mm 0.00 in0.0 mm 0.02 in0.5 mm
01:45 PM 58.1°F14.5°C 56.4°F13.6°C 94% 2.5 mph W4.0 kmh W 3.4 mph5.5 kmh 29.68 in1005.1 mb 0.00 in0.0 mm 0.00 in0.0 mm 0.02 in0.5 mm
01:30 PM 58.3°F14.6°C 56.6°F13.7°C 94% 2.2 mph WSW3.5 kmh WSW 3.1 mph5.0 kmh 29.68 in1005.1 mb 0.00 in0.0 mm 0.00 in0.0 mm 0.02 in0.5 mm
01:15 PM 58.3°F14.6°C 56.6°F13.7°C 94% Calm Calm 3.6 mph5.8 kmh 29.68 in1005.1 mb 0.00 in0.0 mm 0.00 in0.0 mm 0.02 in0.5 mm
01:00 PM 58.3°F14.6°C 56.9°F13.8°C 95% 1.1 mph WNW1.8 kmh WNW 6.0 mph9.7 kmh 29.68 in1005.1 mb 0.00 in0.0 mm 0.00 in0.0 mm 0.02 in0.5 mm
12:45 PM 57.9°F14.4°C 56.5°F13.6°C 95% Calm Calm 5.1 mph8.2 kmh 29.69 in1005.4 mb 0.00 in0.0 mm 0.00 in0.0 mm 0.02 in0.5 mm
12:30 PM 57.0°F13.9°C 55.6°F13.1°C 95% Calm Calm 3.8 mph6.1 kmh 29.69 in1005.4 mb 0.00 in0.0 mm 0.00 in0.0 mm 0.02 in0.5 mm
12:15 PM 57.2°F14.0°C 55.8°F13.2°C 95% Calm Calm 2.2 mph3.5 kmh 29.70 in1005.8 mb 0.00 in0.0 mm 0.00 in0.0 mm 0.02 in0.5 mm
12:00 PM 56.8°F13.8°C 55.4°F13.0°C 95% 1.6 mph WSW2.6 kmh WSW 4.3 mph6.9 kmh 29.70 in1005.8 mb 0.00 in0.0 mm 0.00 in0.0 mm 0.02 in0.5 mm
11:45 AM 56.3°F13.5°C 54.9°F12.7°C 95% 0.9 mph W1.4 kmh W 3.8 mph6.1 kmh 29.71 in1006.1 mb 0.00 in0.0 mm 0.00 in0.0 mm 0.02 in0.5 mm
11:30 AM 55.6°F13.1°C 54.2°F12.3°C 95% Calm Calm 4.7 mph7.6 kmh 29.71 in1006.1 mb 0.00 in0.0 mm 0.00 in0.0 mm 0.02 in0.5 mm
11:15 AM 55.2°F12.9°C 53.8°F12.1°C 95% Calm Calm 6.3 mph10.1 kmh 29.71 in1006.1 mb 0.00 in0.0 mm 0.00 in0.0 mm 0.02 in0.5 mm
11:00 AM 54.5°F12.5°C 53.1°F11.7°C 95% 2.0 mph WSW3.2 kmh WSW 3.1 mph5.0 kmh 29.72 in1006.4 mb 0.00 in0.0 mm 0.00 in0.0 mm 0.02 in0.5 mm
10:45 AM 53.8°F12.1°C 52.4°F11.3°C 95% Calm Calm 2.5 mph4.0 kmh 29.72 in1006.4 mb 0.00 in0.0 mm 0.00 in0.0 mm 0.02 in0.5 mm
10:30 AM 53.2°F11.8°C 51.8°F11.0°C 95% Calm Calm 4.0 mph6.4 kmh 29.72 in1006.4 mb 0.00 in0.0 mm 0.00 in0.0 mm 0.02 in0.5 mm
10:15 AM 52.5°F11.4°C 51.1°F10.6°C 95% Calm Calm 2.0 mph3.2 kmh 29.71 in1006.1 mb 0.00 in0.0 mm 0.00 in0.0 mm 0.02 in0.5 mm
10:00 AM 52.2°F11.2°C 50.8°F10.4°C 95% Calm Calm 2.5 mph4.0 kmh 29.71 in1006.1 mb 0.00 in0.0 mm 0.00 in0.0 mm 0.02 in0.5 mm
09:45 AM 51.8°F11.0°C 50.4°F10.2°C 95% 2.0 mph NW3.2 kmh NW 2.0 mph3.2 kmh 29.71 in1006.1 mb 0.00 in0.0 mm 0.00 in0.0 mm 0.02 in0.5 mm
09:30 AM 51.3°F10.7°C 49.9°F9.9°C 95% Calm Calm 1.6 mph2.6 kmh 29.70 in1005.8 mb 0.00 in0.0 mm 0.00 in0.0 mm 0.02 in0.5 mm
09:15 AM 50.7°F10.4°C 49.3°F9.6°C 95% Calm Calm 1.3 mph2.1 kmh 29.70 in1005.8 mb 0.00 in0.0 mm 0.00 in0.0 mm 0.02 in0.5 mm
09:00 AM 50.2°F10.1°C 48.8°F9.3°C 95% Calm Calm 1.3 mph2.1 kmh 29.70 in1005.8 mb 0.00 in0.0 mm 0.00 in0.0 mm 0.02 in0.5 mm
08:45 AM 49.6°F9.8°C 48.3°F9.1°C 95% Calm Calm -- 29.69 in1005.4 mb 0.00 in0.0 mm 0.00 in0.0 mm 0.02 in0.5 mm
08:30 AM 49.3°F9.6°C 47.9°F8.8°C 95% Calm Calm -- 29.68 in1005.1 mb 0.00 in0.0 mm 0.00 in0.0 mm 0.02 in0.5 mm
08:15 AM 49.1°F9.5°C 47.7°F8.7°C 95% Calm Calm 2.9 mph4.7 kmh 29.67 in1004.7 mb 0.00 in0.0 mm 0.00 in0.0 mm 0.02 in0.5 mm
08:00 AM 48.9°F9.4°C 47.6°F8.7°C 95% Calm Calm 1.8 mph2.9 kmh 29.67 in1004.7 mb 0.00 in0.0 mm 0.00 in0.0 mm 0.02 in0.5 mm
07:45 AM 48.7°F9.3°C 47.4°F8.6°C 95% 1.3 mph WNW2.1 kmh WNW 2.7 mph4.3 kmh 29.67 in1004.7 mb 0.00 in0.0 mm 0.00 in0.0 mm 0.02 in0.5 mm
07:30 AM 48.7°F9.3°C 47.4°F8.6°C 95% Calm Calm -- 29.66 in1004.4 mb 0.00 in0.0 mm 0.00 in0.0 mm 0.02 in0.5 mm
07:15 AM 48.6°F9.2°C 47.2°F8.4°C 95% 1.3 mph WSW2.1 kmh WSW 1.6 mph2.6 kmh 29.66 in1004.4 mb 0.00 in0.0 mm 0.00 in0.0 mm 0.02 in0.5 mm
07:00 AM 48.6°F9.2°C 47.2°F8.4°C 95% Calm Calm 1.3 mph2.1 kmh 29.65 in1004.1 mb 0.02 in0.5 mm 0.00 in0.0 mm 0.02 in0.5 mm
06:45 AM 48.4°F9.1°C 47.0°F8.3°C 95% Calm Calm 2.9 mph4.7 kmh 29.64 in1003.7 mb 0.02 in0.5 mm 0.00 in0.0 mm 0.02 in0.5 mm
06:30 AM 48.4°F9.1°C 47.0°F8.3°C 95% Calm Calm 2.0 mph3.2 kmh 29.65 in1004.1 mb 0.02 in0.5 mm 0.00 in0.0 mm 0.02 in0.5 mm
06:15 AM 48.4°F9.1°C 47.0°F8.3°C 95% Calm Calm 1.3 mph2.1 kmh 29.63 in1003.4 mb 0.02 in0.5 mm 0.08 in2.0 mm 0.02 in0.5 mm
06:00 AM 48.4°F9.1°C 47.0°F8.3°C 95% Calm Calm 1.3 mph2.1 kmh 29.62 in1003.0 mb 0.00 in0.0 mm 0.00 in0.0 mm 0.00 in0.0 mm
05:45 AM 48.4°F9.1°C 47.0°F8.3°C 95% Calm Calm 1.1 mph1.8 kmh 29.62 in1003.0 mb 0.00 in0.0 mm 0.00 in0.0 mm 0.00 in0.0 mm
05:30 AM 48.4°F9.1°C 47.0°F8.3°C 95% Calm Calm 1.6 mph2.6 kmh 29.61 in1002.7 mb 0.00 in0.0 mm 0.00 in0.0 mm 0.00 in0.0 mm
05:15 AM 48.4°F9.1°C 47.0°F8.3°C 95% Calm Calm 2.5 mph4.0 kmh 29.61 in1002.7 mb 0.00 in0.0 mm 0.00 in0.0 mm 0.00 in0.0 mm
05:00 AM 48.4°F9.1°C 47.0°F8.3°C 95% Calm Calm 1.1 mph1.8 kmh 29.60 in1002.4 mb 0.00 in0.0 mm 0.00 in0.0 mm 0.00 in0.0 mm
04:45 AM 48.4°F9.1°C 47.0°F8.3°C 95% Calm Calm 2.2 mph3.5 kmh 29.60 in1002.4 mb 0.00 in0.0 mm 0.00 in0.0 mm 0.00 in0.0 mm
04:30 AM 48.4°F9.1°C 47.0°F8.3°C 95% Calm Calm 2.5 mph4.0 kmh 29.60 in1002.4 mb 0.00 in0.0 mm 0.00 in0.0 mm 0.00 in0.0 mm
04:15 AM 48.4°F9.1°C 47.0°F8.3°C 95% Calm Calm 3.6 mph5.8 kmh 29.59 in1002.0 mb 0.00 in0.0 mm 0.00 in0.0 mm 0.00 in0.0 mm
04:00 AM 48.4°F9.1°C 47.0°F8.3°C 95% Calm Calm 2.9 mph4.7 kmh 29.58 in1001.7 mb 0.00 in0.0 mm 0.00 in0.0 mm 0.00 in0.0 mm
03:45 AM 48.4°F9.1°C 47.0°F8.3°C 95% 1.3 mph WNW2.1 kmh WNW 2.9 mph4.7 kmh 29.58 in1001.7 mb 0.00 in0.0 mm 0.00 in0.0 mm 0.00 in0.0 mm
03:30 AM 48.6°F9.2°C 47.2°F8.4°C 95% Calm Calm 2.5 mph4.0 kmh 29.57 in1001.4 mb 0.00 in0.0 mm 0.00 in0.0 mm 0.00 in0.0 mm
03:15 AM 48.4°F9.1°C 47.0°F8.3°C 95% Calm Calm 4.3 mph6.9 kmh 29.57 in1001.4 mb 0.00 in0.0 mm 0.00 in0.0 mm 0.00 in0.0 mm
03:00 AM 48.6°F9.2°C 46.9°F8.3°C 94% Calm Calm 2.0 mph3.2 kmh 29.56 in1001.0 mb 0.00 in0.0 mm 0.00 in0.0 mm 0.00 in0.0 mm
02:45 AM 48.6°F9.2°C 46.9°F8.3°C 94% Calm Calm 2.5 mph4.0 kmh 29.56 in1001.0 mb 0.00 in0.0 mm 0.00 in0.0 mm 0.00 in0.0 mm
02:30 AM 48.7°F9.3°C 47.1°F8.4°C 94% Calm Calm 1.8 mph2.9 kmh 29.56 in1001.0 mb 0.00 in0.0 mm 0.00 in0.0 mm 0.00 in0.0 mm
02:15 AM 48.9°F9.4°C 47.3°F8.5°C 94% Calm Calm 2.5 mph4.0 kmh 29.56 in1001.0 mb 0.00 in0.0 mm 0.00 in0.0 mm 0.00 in0.0 mm
02:00 AM 48.9°F9.4°C 47.3°F8.5°C 94% Calm Calm 2.0 mph3.2 kmh 29.56 in1001.0 mb 0.00 in0.0 mm 0.00 in0.0 mm 0.00 in0.0 mm
01:45 AM 49.1°F9.5°C 47.4°F8.6°C 94% Calm Calm -- 29.55 in1000.7 mb 0.00 in0.0 mm 0.00 in0.0 mm 0.00 in0.0 mm
01:30 AM 49.3°F9.6°C 47.6°F8.7°C 94% Calm Calm 3.6 mph5.8 kmh 29.54 in1000.3 mb 0.00 in0.0 mm 0.00 in0.0 mm 0.00 in0.0 mm
01:15 AM 49.5°F9.7°C 47.8°F8.8°C 94% Calm Calm 2.5 mph4.0 kmh 29.53 in1000.0 mb 0.00 in0.0 mm 0.00 in0.0 mm 0.00 in0.0 mm
01:00 AM 49.6°F9.8°C 48.0°F8.9°C 94% 1.3 mph WNW2.1 kmh WNW 3.4 mph5.5 kmh 29.52 in999.7 mb 0.00 in0.0 mm 0.00 in0.0 mm 0.00 in0.0 mm
12:45 AM 49.6°F9.8°C 48.0°F8.9°C 94% 1.3 mph WNW2.1 kmh WNW 5.1 mph8.2 kmh 29.52 in999.7 mb 0.00 in0.0 mm 0.00 in0.0 mm 0.00 in0.0 mm
12:30 AM 49.8°F9.9°C 48.2°F9.0°C 94% Calm Calm 5.4 mph8.7 kmh 29.51 in999.3 mb 0.00 in0.0 mm 0.00 in0.0 mm 0.00 in0.0 mm
12:15 AM 49.8°F9.9°C 48.2°F9.0°C 94% 2.5 mph W4.0 kmh W 2.5 mph4.0 kmh 29.50 in999.0 mb 0.00 in0.0 mm 0.00 in0.0 mm 0.00 in0.0 mm
12:00 AM 50.2°F10.1°C 48.8°F9.3°C 95% Calm Calm 2.9 mph4.7 kmh 29.49 in998.6 mb 0.00 in0.0 mm 0.00 in0.0 mm 0.00 in0.0 mm